• Join FlightAware (Why Join?)
  • Login
  • US Flag 
05:03AM EST


 

Airport Tracker/Info


-or-


 

Live Flight TrackerFlight Track Log ✈ ASQ6130 ✈ 21-Jul-2013 ✈ KDEN - KDIK

Flight Track Log - Related Links

Times and Time Zones

All times are in EDT time to prevent confusion due to time zone crossing. See the ASQ6130 flight status page for this flight to view local times or setup timezone preferences in your user account.

Time Position Orientation Groundspeed Altitude Reporting Facility
EDT Latitude Longitude Course Direction KTS MPH feet Rate Location/Type
01:02PM 39.9500 -104.6833 19° North 215 247 8,300  Level Denver TRACON
01:03PM 40.0000 -104.6667 14° North 212 244 10,700 1,860 Climbing Denver TRACON
01:04PM 40.0667 -104.6667 360° North 258 297 11,900 780 Climbing Denver TRACON
01:05PM 40.1336 -104.6519 10° North 307 353 12,400 720 Climbing Denver Center
01:06PM 40.4473 -104.4454 14° North  Level FlightAware Approximate
01:06PM 40.2508 -104.6025 18° North 364 419 13,500  Level Denver Center
01:07PM 40.5502 -104.4166 19° North  Level FlightAware Approximate
01:07PM 40.3583 -104.5567 18° North 379 436 14,600  Level Denver Center
01:08PM 40.4575 -104.5133 18° North 376 433 16,200 1,620 Climbing Denver Center
01:09PM 40.5628 -104.4658 19° North 362 417 18,000 1,740 Climbing Denver Center
01:10PM 40.6636 -104.4267 16° North 376 433 19,800 1,740 Climbing Denver Center
01:11PM 40.7664 -104.3806 19° North 353 406 21,600 1,740 Climbing Denver Center
01:12PM 40.8664 -104.3406 17° North 372 428 23,400 1,320 Climbing Denver Center
01:13PM 40.9700 -104.2992 17° North 387 445 24,400 960 Climbing Denver Center
01:14PM 41.0758 -104.2569 17° North 399 459 25,400 960 Climbing Denver Center
01:15PM 41.1981 -104.2056 18° North 412 474 26,500 960 Climbing Denver Center
01:16PM 41.3050 -104.1611 17° North 419 482 27,400 960 Climbing Denver Center
01:17PM 41.4297 -104.1100 17° North 421 484 28,500 960 Climbing Denver Center
01:18PM 41.5358 -104.0653 18° North 420 483 29,400 900 Climbing Denver Center
01:19PM 41.6619 -104.0136 17° North 424 488 30,400 660 Climbing Denver Center
01:20PM 41.7708 -103.9678 17° North 429 494 31,000 240 Climbing Denver Center
01:22PM 41.9219 -103.9053 17° North 447 514 31,000  Level Denver Center
01:23PM 42.0381 -103.8547 18° North 457 526 31,000  Level Denver Center
01:24PM 42.1708 -103.7994 17° North 450 518 31,000  Level Denver Center
01:25PM 42.2850 -103.7506 18° North 450 518 31,000  Level Denver Center
01:26PM 42.4161 -103.6947 17° North 444 511 31,000  Level Denver Center
01:27PM 42.5297 -103.6467 17° North 447 514 31,000  Level Denver Center
01:28PM 42.6603 -103.5892 18° North 443 510 31,000  Level Denver Center
01:29PM 42.7722 -103.5394 18° North 443 510 31,000  Level Denver Center
01:30PM 42.9042 -103.4822 18° North 445 512 31,000  Level Denver Center
01:31PM 43.0158 -103.4336 18° North 444 511 31,000  Level Denver Center
01:32PM 43.1500 -103.3781 17° North 449 517 31,000  Level Denver Center
01:33PM 43.2639 -103.3283 18° North 451 519 31,000  Level Denver Center
01:34PM 43.3764 -103.2775 18° North 448 516 31,000  Level Denver Center
01:35PM 43.5089 -103.2183 18° North 447 514 31,000  Level Denver Center
01:36PM 43.6417 -103.1603 18° North 447 514 31,000  Level Denver Center
01:37PM 43.7569 -103.1133 16° North 449 517 31,000  Level Denver Center
01:38PM 43.8861 -103.0517 19° North 444 511 31,000  Level Denver Center
01:39PM 43.9992 -103.0103 15° North 439 505 31,000  Level Denver Center
01:40PM 44.1378 -103.0011 North 441 507 31,000  Level Denver Center
01:41PM 44.2561 -102.9906 North 438 504 31,000  Level Denver Center
01:42PM 44.3781 -102.9803 North 438 504 31,000  Level Denver Center
01:43PM 44.5014 -102.9711 North 441 507 31,000  Level Denver Center
01:44PM 44.6242 -102.9606 North 442 509 31,000  Level Denver Center
01:46PM 44.7956 -102.9469 North 440 506 31,000  Level Denver Center
01:47PM 44.9189 -102.9375 North 442 509 31,000  Level Denver Center
01:47PM 44.9942 -102.9314 North 440 506 31,000  Level Minneapolis Center
01:48PM 45.1161 -102.9211 North 439 505 31,000  Level Minneapolis Center
01:49PM 45.2378 -102.9103 North 438 504 31,000 -900 Level Minneapolis Center
01:50PM 45.3797 -102.8992 North 432 497 29,200 -1,800 Descending Minneapolis Center
01:51PM 45.5033 -102.8903 North 433 498 27,300 -1,920 Descending Minneapolis Center
01:52PM 45.6386 -102.8761 North 450 518 25,300 -1,920 Descending Minneapolis Center
01:53PM 45.7653 -102.8606 North 458 527 23,400 -1,860 Descending Minneapolis Center
01:55PM 45.8875 -102.8478 North 452 520 21,500 -1,860 Descending Minneapolis Center
01:56PM 46.0042 -102.8394 North 440 506 19,600 -2,280 Descending Minneapolis Center
01:57PM 46.1158 -102.8308 North 423 487 16,800 -2,940 Descending Minneapolis Center
01:58PM 46.2417 -102.8247 North 395 455 13,600 -2,400 Descending Minneapolis Center
01:59PM 46.3403 -102.8156 North 372 428 11,900 -1,500 Descending Minneapolis Center
02:00PM 46.4236 -102.8083 North 324 373 10,600 -1,200 Descending Minneapolis Center
02:01PM 46.5042 -102.7992 North 306 352 9,500 -1,200 Descending Minneapolis Center
02:02PM 46.5808 -102.7944 North 293 337 8,200 -1,800 Descending Minneapolis Center
02:03PM 46.6697 -102.7961 359° North 279 321 5,900 -1,800 Descending Minneapolis Center
02:04PM 46.7439 -102.7994 358° North 273 314 4,500 -1,380 Descending Minneapolis Center
02:06PM 46.7849 -102.7992 199° South  Level FlightAware Approximate
02:13PM 46.7833 -102.8000 199° South  Level FlightAware Approximate
02:14PM 46.7973 -102.8019 199° South  Level Estimated